sensor_id;sensor_type;location;lat;lon;timestamp;temperature;humidity
64685;DHT22;51109;47.414;18.954;2023-08-07T00:01:49;16.00;99.90
64685;DHT22;51109;47.414;18.954;2023-08-07T00:04:15;16.10;99.90
64685;DHT22;51109;47.414;18.954;2023-08-07T00:06:41;16.10;99.90
64685;DHT22;51109;47.414;18.954;2023-08-07T00:09:07;16.10;99.90
64685;DHT22;51109;47.414;18.954;2023-08-07T00:11:32;16.00;99.90
64685;DHT22;51109;47.414;18.954;2023-08-07T00:13:59;16.00;99.90
64685;DHT22;51109;47.414;18.954;2023-08-07T00:16:25;16.00;99.90
64685;DHT22;51109;47.414;18.954;2023-08-07T00:18:51;16.00;99.90
64685;DHT22;51109;47.414;18.954;2023-08-07T00:21:18;16.00;99.90
64685;DHT22;51109;47.414;18.954;2023-08-07T00:23:44;16.00;99.90
64685;DHT22;51109;47.414;18.954;2023-08-07T00:26:09;16.00;99.90
64685;DHT22;51109;47.414;18.954;2023-08-07T00:28:35;15.90;99.90
64685;DHT22;51109;47.414;18.954;2023-08-07T00:31:01;16.00;99.90
64685;DHT22;51109;47.414;18.954;2023-08-07T00:33:27;16.00;99.90
64685;DHT22;51109;47.414;18.954;2023-08-07T00:35:53;16.00;99.90
64685;DHT22;51109;47.414;18.954;2023-08-07T00:38:19;16.00;99.90
64685;DHT22;51109;47.414;18.954;2023-08-07T00:40:45;16.00;99.90
64685;DHT22;51109;47.414;18.954;2023-08-07T00:43:11;16.00;99.90
64685;DHT22;51109;47.414;18.954;2023-08-07T00:45:42;16.00;99.90
64685;DHT22;51109;47.414;18.954;2023-08-07T00:48:08;16.00;99.90
64685;DHT22;51109;47.414;18.954;2023-08-07T00:50:34;15.90;99.90
64685;DHT22;51109;47.414;18.954;2023-08-07T00:53:01;15.90;99.90
64685;DHT22;51109;47.414;18.954;2023-08-07T00:55:28;16.00;99.90
64685;DHT22;51109;47.414;18.954;2023-08-07T00:57:54;15.90;99.90
64685;DHT22;51109;47.414;18.954;2023-08-07T01:00:20;15.90;99.90
64685;DHT22;51109;47.414;18.954;2023-08-07T01:02:47;15.90;99.90
64685;DHT22;51109;47.414;18.954;2023-08-07T01:05:17;15.90;99.90
64685;DHT22;51109;47.414;18.954;2023-08-07T01:07:46;15.90;99.90
64685;DHT22;51109;47.414;18.954;2023-08-07T01:10:12;15.90;99.90
64685;DHT22;51109;47.414;18.954;2023-08-07T01:12:48;15.90;99.90
64685;DHT22;51109;47.414;18.954;2023-08-07T01:15:24;15.90;99.90
64685;DHT22;51109;47.414;18.954;2023-08-07T01:17:52;15.90;99.90
64685;DHT22;51109;47.414;18.954;2023-08-07T01:20:18;15.90;99.90
64685;DHT22;51109;47.414;18.954;2023-08-07T01:22:44;15.90;99.90
64685;DHT22;51109;47.414;18.954;2023-08-07T01:25:10;15.90;99.90
64685;DHT22;51109;47.414;18.954;2023-08-07T01:27:41;15.90;99.90
64685;DHT22;51109;47.414;18.954;2023-08-07T01:30:25;15.90;99.90
64685;DHT22;51109;47.414;18.954;2023-08-07T01:35:27;15.90;99.90
64685;DHT22;51109;47.414;18.954;2023-08-07T01:37:56;15.90;99.90
64685;DHT22;51109;47.414;18.954;2023-08-07T01:40:23;15.90;99.90
64685;DHT22;51109;47.414;18.954;2023-08-07T01:42:49;15.80;99.90
64685;DHT22;51109;47.414;18.954;2023-08-07T01:45:26;15.80;99.90
64685;DHT22;51109;47.414;18.954;2023-08-07T01:47:52;15.80;99.90
64685;DHT22;51109;47.414;18.954;2023-08-07T01:50:22;15.80;99.90
64685;DHT22;51109;47.414;18.954;2023-08-07T01:52:48;15.80;99.90
64685;DHT22;51109;47.414;18.954;2023-08-07T01:55:16;15.80;99.90
64685;DHT22;51109;47.414;18.954;2023-08-07T01:57:42;15.80;99.90
64685;DHT22;51109;47.414;18.954;2023-08-07T02:00:08;15.80;99.90
64685;DHT22;51109;47.414;18.954;2023-08-07T02:02:35;15.80;99.90
64685;DHT22;51109;47.414;18.954;2023-08-07T02:05:01;15.80;99.90
64685;DHT22;51109;47.414;18.954;2023-08-07T02:07:27;15.80;99.90
64685;DHT22;51109;47.414;18.954;2023-08-07T02:09:53;15.80;99.90
64685;DHT22;51109;47.414;18.954;2023-08-07T02:12:19;15.80;99.90
64685;DHT22;51109;47.414;18.954;2023-08-07T02:14:45;15.80;99.90
64685;DHT22;51109;47.414;18.954;2023-08-07T02:17:11;15.70;99.90
64685;DHT22;51109;47.414;18.954;2023-08-07T02:19:37;15.80;99.90
64685;DHT22;51109;47.414;18.954;2023-08-07T02:22:03;15.80;99.90
64685;DHT22;51109;47.414;18.954;2023-08-07T02:24:29;15.80;99.90
64685;DHT22;51109;47.414;18.954;2023-08-07T02:26:55;15.80;99.90
64685;DHT22;51109;47.414;18.954;2023-08-07T02:29:20;15.80;99.90
64685;DHT22;51109;47.414;18.954;2023-08-07T02:31:46;15.80;99.90
64685;DHT22;51109;47.414;18.954;2023-08-07T02:34:12;15.80;99.90
64685;DHT22;51109;47.414;18.954;2023-08-07T02:36:38;15.80;99.90
64685;DHT22;51109;47.414;18.954;2023-08-07T02:39:04;15.80;99.90
64685;DHT22;51109;47.414;18.954;2023-08-07T02:41:30;15.80;99.90
64685;DHT22;51109;47.414;18.954;2023-08-07T02:43:57;15.70;99.90
64685;DHT22;51109;47.414;18.954;2023-08-07T02:46:23;15.70;99.90
64685;DHT22;51109;47.414;18.954;2023-08-07T02:48:48;15.70;99.90
64685;DHT22;51109;47.414;18.954;2023-08-07T02:51:14;15.70;99.90
64685;DHT22;51109;47.414;18.954;2023-08-07T02:53:40;15.70;99.90
64685;DHT22;51109;47.414;18.954;2023-08-07T02:56:06;15.60;99.90
64685;DHT22;51109;47.414;18.954;2023-08-07T02:58:32;15.60;99.90
64685;DHT22;51109;47.414;18.954;2023-08-07T03:03:53;15.50;99.90
64685;DHT22;51109;47.414;18.954;2023-08-07T03:06:19;15.50;99.90
64685;DHT22;51109;47.414;18.954;2023-08-07T03:08:45;15.50;99.90
64685;DHT22;51109;47.414;18.954;2023-08-07T03:11:10;15.50;99.90
64685;DHT22;51109;47.414;18.954;2023-08-07T03:13:36;15.40;99.90
64685;DHT22;51109;47.414;18.954;2023-08-07T03:16:04;15.40;99.90
64685;DHT22;51109;47.414;18.954;2023-08-07T03:18:30;15.40;99.90
64685;DHT22;51109;47.414;18.954;2023-08-07T03:23:24;15.30;99.90
64685;DHT22;51109;47.414;18.954;2023-08-07T03:25:50;15.40;99.90
64685;DHT22;51109;47.414;18.954;2023-08-07T03:28:17;15.30;99.90
64685;DHT22;51109;47.414;18.954;2023-08-07T03:30:43;15.30;99.90
64685;DHT22;51109;47.414;18.954;2023-08-07T03:33:10;15.30;99.90
64685;DHT22;51109;47.414;18.954;2023-08-07T03:35:36;15.30;99.90
64685;DHT22;51109;47.414;18.954;2023-08-07T03:38:02;15.20;99.90
64685;DHT22;51109;47.414;18.954;2023-08-07T03:40:28;15.20;99.90
64685;DHT22;51109;47.414;18.954;2023-08-07T03:42:54;15.20;99.90
64685;DHT22;51109;47.414;18.954;2023-08-07T03:45:19;15.20;99.90
64685;DHT22;51109;47.414;18.954;2023-08-07T03:47:45;15.10;99.90
64685;DHT22;51109;47.414;18.954;2023-08-07T03:50:11;15.10;99.90
64685;DHT22;51109;47.414;18.954;2023-08-07T03:52:37;15.10;99.90
64685;DHT22;51109;47.414;18.954;2023-08-07T03:55:03;15.10;99.90
64685;DHT22;51109;47.414;18.954;2023-08-07T03:57:29;15.20;99.90
64685;DHT22;51109;47.414;18.954;2023-08-07T03:59:55;15.10;99.90
64685;DHT22;51109;47.414;18.954;2023-08-07T04:02:22;15.20;99.90
64685;DHT22;51109;47.414;18.954;2023-08-07T04:04:48;15.20;99.90
64685;DHT22;51109;47.414;18.954;2023-08-07T04:07:14;15.20;99.90
64685;DHT22;51109;47.414;18.954;2023-08-07T04:09:40;15.20;99.90
64685;DHT22;51109;47.414;18.954;2023-08-07T04:12:06;15.20;99.90
64685;DHT22;51109;47.414;18.954;2023-08-07T04:14:32;15.30;99.90
64685;DHT22;51109;47.414;18.954;2023-08-07T04:16:58;15.30;99.90
64685;DHT22;51109;47.414;18.954;2023-08-07T04:21:52;18.90;99.90
64685;DHT22;51109;47.414;18.954;2023-08-07T04:24:18;15.40;99.90
64685;DHT22;51109;47.414;18.954;2023-08-07T04:26:44;15.40;99.90
64685;DHT22;51109;47.414;18.954;2023-08-07T04:29:10;15.40;99.90
64685;DHT22;51109;47.414;18.954;2023-08-07T04:31:36;15.50;99.90
64685;DHT22;51109;47.414;18.954;2023-08-07T04:34:02;15.60;99.90
64685;DHT22;51109;47.414;18.954;2023-08-07T04:36:27;15.60;99.90
64685;DHT22;51109;47.414;18.954;2023-08-07T04:38:53;15.70;99.90
64685;DHT22;51109;47.414;18.954;2023-08-07T04:41:21;15.70;99.90
64685;DHT22;51109;47.414;18.954;2023-08-07T04:43:47;15.80;99.90
64685;DHT22;51109;47.414;18.954;2023-08-07T04:46:14;15.80;99.90
64685;DHT22;51109;47.414;18.954;2023-08-07T04:48:40;15.90;99.90
64685;DHT22;51109;47.414;18.954;2023-08-07T04:51:06;15.90;99.90
64685;DHT22;51109;47.414;18.954;2023-08-07T04:53:32;16.00;99.90
64685;DHT22;51109;47.414;18.954;2023-08-07T04:55:59;16.00;99.90
64685;DHT22;51109;47.414;18.954;2023-08-07T04:58:25;16.10;99.90
64685;DHT22;51109;47.414;18.954;2023-08-07T05:00:58;16.20;99.90
64685;DHT22;51109;47.414;18.954;2023-08-07T05:03:24;16.30;99.90
64685;DHT22;51109;47.414;18.954;2023-08-07T05:05:50;16.40;99.90
64685;DHT22;51109;47.414;18.954;2023-08-07T05:08:17;16.40;99.90
64685;DHT22;51109;47.414;18.954;2023-08-07T05:10:42;16.50;99.90
64685;DHT22;51109;47.414;18.954;2023-08-07T05:13:08;16.60;99.90
64685;DHT22;51109;47.414;18.954;2023-08-07T05:15:34;16.70;99.90
64685;DHT22;51109;47.414;18.954;2023-08-07T05:18:00;16.80;99.90
64685;DHT22;51109;47.414;18.954;2023-08-07T05:20:26;17.20;99.90
64685;DHT22;51109;47.414;18.954;2023-08-07T05:22:51;17.20;99.90
64685;DHT22;51109;47.414;18.954;2023-08-07T05:27:45;17.40;99.90
64685;DHT22;51109;47.414;18.954;2023-08-07T05:30:11;17.40;99.90
64685;DHT22;51109;47.414;18.954;2023-08-07T05:32:37;17.60;99.90
64685;DHT22;51109;47.414;18.954;2023-08-07T05:35:07;17.60;99.90
64685;DHT22;51109;47.414;18.954;2023-08-07T05:37:34;17.40;99.90
64685;DHT22;51109;47.414;18.954;2023-08-07T05:40:00;17.30;99.90
64685;DHT22;51109;47.414;18.954;2023-08-07T05:42:26;17.30;99.90
64685;DHT22;51109;47.414;18.954;2023-08-07T05:44:52;17.30;99.90
64685;DHT22;51109;47.414;18.954;2023-08-07T05:47:18;17.30;99.90
64685;DHT22;51109;47.414;18.954;2023-08-07T05:49:43;17.20;99.90
64685;DHT22;51109;47.414;18.954;2023-08-07T05:52:09;17.10;99.90
64685;DHT22;51109;47.414;18.954;2023-08-07T05:54:35;17.10;99.90
64685;DHT22;51109;47.414;18.954;2023-08-07T05:57:01;17.10;99.90
64685;DHT22;51109;47.414;18.954;2023-08-07T05:59:27;17.00;99.90
64685;DHT22;51109;47.414;18.954;2023-08-07T06:01:53;17.10;99.90
64685;DHT22;51109;47.414;18.954;2023-08-07T06:04:20;17.00;99.90
64685;DHT22;51109;47.414;18.954;2023-08-07T06:06:47;17.10;99.90
64685;DHT22;51109;47.414;18.954;2023-08-07T06:09:13;17.10;99.90
64685;DHT22;51109;47.414;18.954;2023-08-07T06:11:41;17.10;99.90
64685;DHT22;51109;47.414;18.954;2023-08-07T06:14:07;17.20;99.90
64685;DHT22;51109;47.414;18.954;2023-08-07T06:16:33;17.20;99.90
64685;DHT22;51109;47.414;18.954;2023-08-07T06:18:59;17.20;99.90
64685;DHT22;51109;47.414;18.954;2023-08-07T06:21:25;17.10;99.90
64685;DHT22;51109;47.414;18.954;2023-08-07T06:23:51;17.10;99.90
64685;DHT22;51109;47.414;18.954;2023-08-07T06:26:17;17.20;99.90
64685;DHT22;51109;47.414;18.954;2023-08-07T06:28:43;17.20;99.90
64685;DHT22;51109;47.414;18.954;2023-08-07T06:31:10;17.40;99.90
64685;DHT22;51109;47.414;18.954;2023-08-07T06:33:37;17.70;99.90
64685;DHT22;51109;47.414;18.954;2023-08-07T06:36:03;17.70;99.90
64685;DHT22;51109;47.414;18.954;2023-08-07T06:38:30;17.80;99.90
64685;DHT22;51109;47.414;18.954;2023-08-07T06:40:56;18.20;99.90
64685;DHT22;51109;47.414;18.954;2023-08-07T06:43:22;18.20;99.90
64685;DHT22;51109;47.414;18.954;2023-08-07T06:45:53;18.30;99.90
64685;DHT22;51109;47.414;18.954;2023-08-07T06:48:19;18.30;99.90
64685;DHT22;51109;47.414;18.954;2023-08-07T06:50:47;18.20;99.90
64685;DHT22;51109;47.414;18.954;2023-08-07T06:53:12;18.20;99.90
64685;DHT22;51109;47.414;18.954;2023-08-07T06:55:38;18.10;99.90
64685;DHT22;51109;47.414;18.954;2023-08-07T06:58:04;18.00;99.90
64685;DHT22;51109;47.414;18.954;2023-08-07T07:00:30;17.80;99.90
64685;DHT22;51109;47.414;18.954;2023-08-07T07:02:57;17.60;99.90
64685;DHT22;51109;47.414;18.954;2023-08-07T07:07:49;17.80;99.90
64685;DHT22;51109;47.414;18.954;2023-08-07T07:10:14;18.10;99.90
64685;DHT22;51109;47.414;18.954;2023-08-07T07:12:40;18.10;99.90
64685;DHT22;51109;47.414;18.954;2023-08-07T07:15:06;18.40;99.90
64685;DHT22;51109;47.414;18.954;2023-08-07T07:17:32;18.40;99.90
64685;DHT22;51109;47.414;18.954;2023-08-07T07:19:58;18.40;99.90
64685;DHT22;51109;47.414;18.954;2023-08-07T07:22:24;18.30;99.90
64685;DHT22;51109;47.414;18.954;2023-08-07T07:24:50;18.20;99.90
64685;DHT22;51109;47.414;18.954;2023-08-07T07:27:16;18.20;99.90
64685;DHT22;51109;47.414;18.954;2023-08-07T07:29:42;18.20;99.90
64685;DHT22;51109;47.414;18.954;2023-08-07T07:32:08;18.20;99.90
64685;DHT22;51109;47.414;18.954;2023-08-07T07:34:34;18.10;99.90
64685;DHT22;51109;47.414;18.954;2023-08-07T07:36:59;18.10;99.90
64685;DHT22;51109;47.414;18.954;2023-08-07T07:39:25;18.10;99.90
64685;DHT22;51109;47.414;18.954;2023-08-07T07:41:51;18.10;99.90
64685;DHT22;51109;47.414;18.954;2023-08-07T07:44:17;18.20;99.90
64685;DHT22;51109;47.414;18.954;2023-08-07T07:46:43;18.60;99.90
64685;DHT22;51109;47.414;18.954;2023-08-07T07:49:09;18.50;99.90
64685;DHT22;51109;47.414;18.954;2023-08-07T07:51:34;18.50;99.90
64685;DHT22;51109;47.414;18.954;2023-08-07T07:54:02;18.40;99.90
64685;DHT22;51109;47.414;18.954;2023-08-07T07:56:28;18.60;99.90
64685;DHT22;51109;47.414;18.954;2023-08-07T07:58:55;18.90;99.90
64685;DHT22;51109;47.414;18.954;2023-08-07T08:01:21;19.10;99.90
64685;DHT22;51109;47.414;18.954;2023-08-07T08:03:47;19.20;99.90
64685;DHT22;51109;47.414;18.954;2023-08-07T08:06:13;19.30;99.90
64685;DHT22;51109;47.414;18.954;2023-08-07T08:08:39;19.40;99.90
64685;DHT22;51109;47.414;18.954;2023-08-07T08:11:05;19.40;99.90
64685;DHT22;51109;47.414;18.954;2023-08-07T08:13:31;19.50;99.90
64685;DHT22;51109;47.414;18.954;2023-08-07T08:15:57;19.30;99.90
64685;DHT22;51109;47.414;18.954;2023-08-07T08:18:23;19.10;99.90
64685;DHT22;51109;47.414;18.954;2023-08-07T08:20:49;19.00;99.90
64685;DHT22;51109;47.414;18.954;2023-08-07T08:23:15;18.90;99.90
64685;DHT22;51109;47.414;18.954;2023-08-07T08:25:40;18.90;99.90
64685;DHT22;51109;47.414;18.954;2023-08-07T08:28:06;18.80;99.90
64685;DHT22;51109;47.414;18.954;2023-08-07T08:30:32;18.80;99.90
64685;DHT22;51109;47.414;18.954;2023-08-07T08:32:58;18.70;99.90
64685;DHT22;51109;47.414;18.954;2023-08-07T08:35:24;18.90;99.90
64685;DHT22;51109;47.414;18.954;2023-08-07T08:37:50;19.10;99.90
64685;DHT22;51109;47.414;18.954;2023-08-07T08:40:16;19.10;99.90
64685;DHT22;51109;47.414;18.954;2023-08-07T08:42:46;19.20;99.90
64685;DHT22;51109;47.414;18.954;2023-08-07T08:45:15;19.30;99.90
64685;DHT22;51109;47.414;18.954;2023-08-07T08:47:42;19.30;99.90
64685;DHT22;51109;47.414;18.954;2023-08-07T08:50:12;19.20;99.90
64685;DHT22;51109;47.414;18.954;2023-08-07T08:52:40;19.10;99.90
64685;DHT22;51109;47.414;18.954;2023-08-07T08:55:07;19.00;99.90
64685;DHT22;51109;47.414;18.954;2023-08-07T08:57:34;19.00;99.90
64685;DHT22;51109;47.414;18.954;2023-08-07T09:00:02;19.00;99.90
64685;DHT22;51109;47.414;18.954;2023-08-07T09:02:33;18.90;99.90
64685;DHT22;51109;47.414;18.954;2023-08-07T09:04:59;18.90;99.90
64685;DHT22;51109;47.414;18.954;2023-08-07T09:07:26;18.90;99.90
64685;DHT22;51109;47.414;18.954;2023-08-07T09:09:53;19.00;99.90
64685;DHT22;51109;47.414;18.954;2023-08-07T09:12:26;18.90;99.90
64685;DHT22;51109;47.414;18.954;2023-08-07T09:14:57;19.10;99.90
64685;DHT22;51109;47.414;18.954;2023-08-07T09:17:28;19.20;99.90
64685;DHT22;51109;47.414;18.954;2023-08-07T09:19:58;19.30;99.90
64685;DHT22;51109;47.414;18.954;2023-08-07T09:22:24;19.20;99.90
64685;DHT22;51109;47.414;18.954;2023-08-07T09:24:50;19.20;99.90
64685;DHT22;51109;47.414;18.954;2023-08-07T09:27:16;19.20;99.90
64685;DHT22;51109;47.414;18.954;2023-08-07T09:29:46;19.40;99.90
64685;DHT22;51109;47.414;18.954;2023-08-07T09:32:13;19.40;99.90
64685;DHT22;51109;47.414;18.954;2023-08-07T09:34:39;19.20;99.90
64685;DHT22;51109;47.414;18.954;2023-08-07T09:37:07;19.20;99.90
64685;DHT22;51109;47.414;18.954;2023-08-07T09:39:36;19.70;99.90
64685;DHT22;51109;47.414;18.954;2023-08-07T09:42:05;19.60;99.90
64685;DHT22;51109;47.414;18.954;2023-08-07T09:44:38;19.30;99.90
64685;DHT22;51109;47.414;18.954;2023-08-07T09:47:15;19.40;99.90
64685;DHT22;51109;47.414;18.954;2023-08-07T09:49:41;19.30;99.90
64685;DHT22;51109;47.414;18.954;2023-08-07T09:52:08;19.20;99.90
64685;DHT22;51109;47.414;18.954;2023-08-07T09:54:35;19.20;99.90
64685;DHT22;51109;47.414;18.954;2023-08-07T09:57:01;19.20;99.90
64685;DHT22;51109;47.414;18.954;2023-08-07T09:59:28;19.30;99.90
64685;DHT22;51109;47.414;18.954;2023-08-07T10:01:55;19.10;99.90
64685;DHT22;51109;47.414;18.954;2023-08-07T10:04:25;19.50;99.90
64685;DHT22;51109;47.414;18.954;2023-08-07T10:06:52;19.50;99.90
64685;DHT22;51109;47.414;18.954;2023-08-07T10:09:19;19.50;99.90
64685;DHT22;51109;47.414;18.954;2023-08-07T10:11:45;19.90;99.90
64685;DHT22;51109;47.414;18.954;2023-08-07T10:14:15;20.40;99.90
64685;DHT22;51109;47.414;18.954;2023-08-07T10:16:41;20.40;99.90
64685;DHT22;51109;47.414;18.954;2023-08-07T10:19:08;20.50;99.90
64685;DHT22;51109;47.414;18.954;2023-08-07T10:21:39;20.50;99.90
64685;DHT22;51109;47.414;18.954;2023-08-07T10:24:06;20.10;99.90
64685;DHT22;51109;47.414;18.954;2023-08-07T10:26:35;19.70;99.90
64685;DHT22;51109;47.414;18.954;2023-08-07T10:29:05;20.10;99.90
64685;DHT22;51109;47.414;18.954;2023-08-07T10:31:33;20.30;99.90
64685;DHT22;51109;47.414;18.954;2023-08-07T10:34:01;20.20;99.90
64685;DHT22;51109;47.414;18.954;2023-08-07T10:36:34;20.20;99.90
64685;DHT22;51109;47.414;18.954;2023-08-07T10:39:12;20.50;99.90
64685;DHT22;51109;47.414;18.954;2023-08-07T10:41:46;20.30;99.90
64685;DHT22;51109;47.414;18.954;2023-08-07T10:44:23;20.20;99.90
64685;DHT22;51109;47.414;18.954;2023-08-07T10:46:54;19.90;99.90
64685;DHT22;51109;47.414;18.954;2023-08-07T10:49:44;19.40;99.90
64685;DHT22;51109;47.414;18.954;2023-08-07T10:52:12;19.40;99.90
64685;DHT22;51109;47.414;18.954;2023-08-07T10:54:46;19.40;99.90
64685;DHT22;51109;47.414;18.954;2023-08-07T10:57:13;19.40;99.90
64685;DHT22;51109;47.414;18.954;2023-08-07T11:02:29;19.30;99.90
64685;DHT22;51109;47.414;18.954;2023-08-07T11:04:55;19.40;99.90
64685;DHT22;51109;47.414;18.954;2023-08-07T11:07:26;19.20;99.90
64685;DHT22;51109;47.414;18.954;2023-08-07T11:09:53;19.50;99.90
64685;DHT22;51109;47.414;18.954;2023-08-07T11:12:19;19.50;99.90
64685;DHT22;51109;47.414;18.954;2023-08-07T11:14:46;19.50;99.90
64685;DHT22;51109;47.414;18.954;2023-08-07T11:17:12;18.90;99.90
64685;DHT22;51109;47.414;18.954;2023-08-07T11:19:39;18.60;99.90
64685;DHT22;51109;47.414;18.954;2023-08-07T11:22:05;18.80;99.90
64685;DHT22;51109;47.414;18.954;2023-08-07T11:24:31;18.70;99.90
64685;DHT22;51109;47.414;18.954;2023-08-07T11:26:57;18.50;99.90
64685;DHT22;51109;47.414;18.954;2023-08-07T11:29:24;18.40;99.90
64685;DHT22;51109;47.414;18.954;2023-08-07T11:31:51;18.40;99.90
64685;DHT22;51109;47.414;18.954;2023-08-07T11:34:18;18.20;99.90
64685;DHT22;51109;47.414;18.954;2023-08-07T11:36:44;18.10;99.90
64685;DHT22;51109;47.414;18.954;2023-08-07T11:39:12;18.40;99.90
64685;DHT22;51109;47.414;18.954;2023-08-07T11:41:39;18.30;99.90
64685;DHT22;51109;47.414;18.954;2023-08-07T11:44:07;17.80;99.90
64685;DHT22;51109;47.414;18.954;2023-08-07T11:46:33;17.70;99.90
64685;DHT22;51109;47.414;18.954;2023-08-07T11:48:59;17.70;99.90
64685;DHT22;51109;47.414;18.954;2023-08-07T11:51:26;17.90;99.90
64685;DHT22;51109;47.414;18.954;2023-08-07T11:53:52;17.60;99.90
64685;DHT22;51109;47.414;18.954;2023-08-07T11:56:22;17.30;99.90
64685;DHT22;51109;47.414;18.954;2023-08-07T11:58:50;17.40;99.90
64685;DHT22;51109;47.414;18.954;2023-08-07T12:01:25;17.40;99.90
64685;DHT22;51109;47.414;18.954;2023-08-07T12:03:56;17.40;99.90
64685;DHT22;51109;47.414;18.954;2023-08-07T12:06:34;17.70;99.90
64685;DHT22;51109;47.414;18.954;2023-08-07T12:09:11;17.90;99.90
64685;DHT22;51109;47.414;18.954;2023-08-07T12:11:38;18.20;99.90
64685;DHT22;51109;47.414;18.954;2023-08-07T12:14:04;18.10;99.90
64685;DHT22;51109;47.414;18.954;2023-08-07T12:16:34;18.30;99.90
64685;DHT22;51109;47.414;18.954;2023-08-07T12:19:01;18.30;99.90
64685;DHT22;51109;47.414;18.954;2023-08-07T12:21:27;18.20;99.90
64685;DHT22;51109;47.414;18.954;2023-08-07T12:23:56;18.20;99.90
64685;DHT22;51109;47.414;18.954;2023-08-07T12:26:23;18.50;99.90
64685;DHT22;51109;47.414;18.954;2023-08-07T12:28:49;18.80;99.90
64685;DHT22;51109;47.414;18.954;2023-08-07T12:31:15;19.00;99.90
64685;DHT22;51109;47.414;18.954;2023-08-07T12:33:43;19.00;99.90
64685;DHT22;51109;47.414;18.954;2023-08-07T12:36:09;19.00;99.90
64685;DHT22;51109;47.414;18.954;2023-08-07T12:38:36;19.10;99.90
64685;DHT22;51109;47.414;18.954;2023-08-07T12:41:02;18.70;99.90
64685;DHT22;51109;47.414;18.954;2023-08-07T12:43:29;18.10;99.90
64685;DHT22;51109;47.414;18.954;2023-08-07T12:45:55;18.10;99.90
64685;DHT22;51109;47.414;18.954;2023-08-07T12:48:20;18.10;99.90
64685;DHT22;51109;47.414;18.954;2023-08-07T12:50:46;18.20;99.90
64685;DHT22;51109;47.414;18.954;2023-08-07T12:53:12;18.40;99.90
64685;DHT22;51109;47.414;18.954;2023-08-07T12:55:38;18.60;99.90
64685;DHT22;51109;47.414;18.954;2023-08-07T12:58:04;18.50;99.90
64685;DHT22;51109;47.414;18.954;2023-08-07T13:00:30;18.60;99.90
64685;DHT22;51109;47.414;18.954;2023-08-07T13:02:57;18.80;99.90
64685;DHT22;51109;47.414;18.954;2023-08-07T13:05:24;18.50;99.90
64685;DHT22;51109;47.414;18.954;2023-08-07T13:07:51;18.80;99.90
64685;DHT22;51109;47.414;18.954;2023-08-07T13:10:22;19.00;99.90
64685;DHT22;51109;47.414;18.954;2023-08-07T13:12:48;19.10;99.90
64685;DHT22;51109;47.414;18.954;2023-08-07T13:15:16;19.00;99.90
64685;DHT22;51109;47.414;18.954;2023-08-07T13:17:43;19.00;99.90
64685;DHT22;51109;47.414;18.954;2023-08-07T13:20:13;19.30;99.90
64685;DHT22;51109;47.414;18.954;2023-08-07T13:22:41;19.40;99.90
64685;DHT22;51109;47.414;18.954;2023-08-07T13:25:08;19.40;99.90
64685;DHT22;51109;47.414;18.954;2023-08-07T13:27:35;19.30;99.90
64685;DHT22;51109;47.414;18.954;2023-08-07T13:30:02;19.50;99.90
64685;DHT22;51109;47.414;18.954;2023-08-07T13:32:28;19.20;99.90
64685;DHT22;51109;47.414;18.954;2023-08-07T13:34:54;18.70;99.90
64685;DHT22;51109;47.414;18.954;2023-08-07T13:37:20;18.20;99.90
64685;DHT22;51109;47.414;18.954;2023-08-07T13:39:46;18.10;99.90
64685;DHT22;51109;47.414;18.954;2023-08-07T13:42:15;18.10;99.90
64685;DHT22;51109;47.414;18.954;2023-08-07T13:44:41;18.20;99.90
64685;DHT22;51109;47.414;18.954;2023-08-07T13:47:07;18.20;99.90
64685;DHT22;51109;47.414;18.954;2023-08-07T13:49:34;18.10;99.90
64685;DHT22;51109;47.414;18.954;2023-08-07T13:52:00;17.80;99.90
64685;DHT22;51109;47.414;18.954;2023-08-07T13:54:26;17.70;99.90
64685;DHT22;51109;47.414;18.954;2023-08-07T13:56:52;17.90;99.90
64685;DHT22;51109;47.414;18.954;2023-08-07T13:59:17;18.10;99.90
64685;DHT22;51109;47.414;18.954;2023-08-07T14:01:43;18.00;99.90
64685;DHT22;51109;47.414;18.954;2023-08-07T14:04:09;17.60;99.90
64685;DHT22;51109;47.414;18.954;2023-08-07T14:06:35;17.80;99.90
64685;DHT22;51109;47.414;18.954;2023-08-07T14:09:02;17.70;99.90
64685;DHT22;51109;47.414;18.954;2023-08-07T14:11:28;17.70;99.90
64685;DHT22;51109;47.414;18.954;2023-08-07T14:13:59;17.50;99.90
64685;DHT22;51109;47.414;18.954;2023-08-07T14:16:25;17.50;99.90
64685;DHT22;51109;47.414;18.954;2023-08-07T14:18:51;17.20;99.90
64685;DHT22;51109;47.414;18.954;2023-08-07T14:21:17;17.20;99.90
64685;DHT22;51109;47.414;18.954;2023-08-07T14:23:43;17.20;99.90
64685;DHT22;51109;47.414;18.954;2023-08-07T14:26:12;16.90;99.90
64685;DHT22;51109;47.414;18.954;2023-08-07T14:28:38;16.90;99.90
64685;DHT22;51109;47.414;18.954;2023-08-07T14:31:07;17.00;99.90
64685;DHT22;51109;47.414;18.954;2023-08-07T14:36:00;16.80;99.90
64685;DHT22;51109;47.414;18.954;2023-08-07T14:38:27;16.70;99.90
64685;DHT22;51109;47.414;18.954;2023-08-07T14:40:53;16.80;99.90
64685;DHT22;51109;47.414;18.954;2023-08-07T14:43:19;16.60;99.90
64685;DHT22;51109;47.414;18.954;2023-08-07T14:45:45;16.50;99.90
64685;DHT22;51109;47.414;18.954;2023-08-07T14:48:12;16.40;99.90
64685;DHT22;51109;47.414;18.954;2023-08-07T14:50:39;16.30;99.90
64685;DHT22;51109;47.414;18.954;2023-08-07T14:53:05;16.30;99.90
64685;DHT22;51109;47.414;18.954;2023-08-07T14:55:33;16.40;99.90
64685;DHT22;51109;47.414;18.954;2023-08-07T14:57:59;16.20;99.90
64685;DHT22;51109;47.414;18.954;2023-08-07T15:00:25;16.10;99.90
64685;DHT22;51109;47.414;18.954;2023-08-07T15:02:51;16.10;99.90
64685;DHT22;51109;47.414;18.954;2023-08-07T15:05:17;16.30;99.90
64685;DHT22;51109;47.414;18.954;2023-08-07T15:07:44;16.30;99.90
64685;DHT22;51109;47.414;18.954;2023-08-07T15:10:10;16.10;99.90
64685;DHT22;51109;47.414;18.954;2023-08-07T15:12:36;16.10;99.90
64685;DHT22;51109;47.414;18.954;2023-08-07T15:15:02;16.10;99.90
64685;DHT22;51109;47.414;18.954;2023-08-07T15:17:28;16.20;99.90
64685;DHT22;51109;47.414;18.954;2023-08-07T15:19:54;16.30;99.90
64685;DHT22;51109;47.414;18.954;2023-08-07T15:22:20;16.50;99.90
64685;DHT22;51109;47.414;18.954;2023-08-07T15:24:46;16.50;99.90
64685;DHT22;51109;47.414;18.954;2023-08-07T15:27:12;16.50;99.90
64685;DHT22;51109;47.414;18.954;2023-08-07T15:29:38;16.40;99.90
64685;DHT22;51109;47.414;18.954;2023-08-07T15:32:07;16.40;99.90
64685;DHT22;51109;47.414;18.954;2023-08-07T15:34:33;16.40;99.90